Eindhoven, Netherlands

2:56 AM CET on February 28, 2015 (GMT +0100)
De Pottenbakker | Change Station
CLOSE
Current Station
Personal Weather Station
Location: Veldhoven, NOORD-BRABANT
Elevation: 72 ft
Nearby Weather Stations

Elev 72 ft 51.42 °N, 5.39 °E | Updated 26 seconds ago

Mist
Mist
32.7 °F
Feels Like 33 °F
N
0.0
Wind Variable Wind from South
Gusts 0.0 mph

Today
High -- | Low -- °F
--% Chance of Precip.
Yesterday
High -- | Low -- °F
Precip. -- in
7:26 AM 6:16 PM
Waxing Gibbous, 73% visible
Pressure 30.15 in
Visibility 5.0 miles
Clouds
Windchill 33 °F
Dew Point 30 °F
Humidity 90%
Rainfall 0.06 in
Snow Depth Not available.
UV 0.0 out of 12
Pollen Not available.
Air Quality Not available.
Flu Activity Not available.
SPECI EHVK 280140Z AUTO 21005KT 8000 BR NCD M01/M01 Q1021 BLU

More Conditions Fewer Conditions

Pressure 30.15 in
Visibility 5.0 miles
Clouds
Windchill 33 °F
Dew Point 30 °F
Humidity 90%
Rainfall 0.06 in
Snow Depth Not available.
UV 0.0 out of 12
Pollen Not available.
Air Quality Not available.
Flu Activity Not available.
SPECI EHVK 280140Z AUTO 21005KT 8000 BR NCD M01/M01 Q1021 BLU

More Conditions Fewer Conditions

10-Day Weather Forecast

Almanac

Astronomy

Feb. 28, 2015 Rise Set
Actual Time
Civil Twilight
Nautical Twilight
Astronomical Twilight
Moon
Length of Visible Light
Length of Day
Tomorrow will be .
, % of the Moon is Illuminated

Today's Extremes

Country Highs Country Lows

Community

WunderPhotos

Upload Photos

1,800,924 photos uploaded!

WunderBlogs® & News

Nearby

Air Quality

  Air Quality AQ Index Pollutant
Not available.

Snow Depth

Station Depth Elevation

Earthquake Activity

City Distance Mag. Time & Date
Minimum magnitude displayed is 2.5.

Coastal Water Temperatures

Place Temperature

Nearby Weather Stations